Time;durP1;ratioP1;P1;durP2;ratioP2;P2;SDS_P1;SDS_P2;PMS_P1;PMS_P2;Temp;Humidity;BMP_temperature;BMP_pressure;BME280_temperature;BME280_humidity;BME280_pressure;Samples;Min_cycle;Max_cycle;Signal;HPM_P1;HPM_P2
2023/12/05 00:00:58;;;;;;;27.05;15.27;;;;;;;;;;5074166;28;20090;-27
2023/12/05 00:03:23;;;;;;;23.87;14.70;;;;;;;;;;5074041;28;20016;-28
2023/12/05 00:05:48;;;;;;;27.10;15.93;;;;;;;;;;5074028;28;20263;-27
2023/12/05 00:08:15;;;;;;;27.80;16.35;;;;;;;;;;5074237;28;20271;-27
2023/12/05 00:10:40;;;;;;;26.52;15.27;;;;;;;;;;5074250;28;20023;-27
2023/12/05 00:13:07;;;;;;;27.30;16.27;;;;;;;;;;5073923;28;20446;-27
2023/12/05 00:15:32;;;;;;;25.55;15.45;;;;;;;;;;5074129;28;20722;-27
2023/12/05 00:17:57;;;;;;;26.77;15.32;;;;;;;;;;5074133;28;20020;-27
2023/12/05 00:20:22;;;;;;;26.05;15.00;;;;;;;;;;5074016;28;20056;-27
2023/12/05 00:22:48;;;;;;;26.87;15.17;;;;;;;;;;5073751;28;20546;-28
2023/12/05 00:25:13;;;;;;;23.90;13.97;;;;;;;;;;5074304;28;20255;-27
2023/12/05 00:27:38;;;;;;;24.75;14.32;;;;;;;;;;5073952;28;20752;-27
2023/12/05 00:30:03;;;;;;;26.57;15.03;;;;;;;;;;5074307;28;20052;-27
2023/12/05 00:32:29;;;;;;;22.90;13.35;;;;;;;;;;5074202;28;20756;-27
2023/12/05 00:34:54;;;;;;;28.03;15.00;;;;;;;;;;5073602;28;20449;-27
2023/12/05 00:37:19;;;;;;;25.33;14.30;;;;;;;;;;5073826;28;20266;-28
2023/12/05 00:39:44;;;;;;;25.88;14.63;;;;;;;;;;5073535;28;20019;-27
2023/12/05 00:42:09;;;;;;;23.80;14.03;;;;;;;;;;5074038;28;20020;-27
2023/12/05 00:44:34;;;;;;;23.27;14.17;;;;;;;;;;5073754;28;20304;-27
2023/12/05 00:47:03;;;;;;;23.33;14.10;;;;;;;;;;5072273;28;20350;-27
2023/12/05 00:49:28;;;;;;;25.05;14.10;;;;;;;;;;5073720;28;20293;-27
2023/12/05 00:51:53;;;;;;;22.92;14.05;;;;;;;;;;5073967;28;20341;-27
2023/12/05 00:54:18;;;;;;;25.43;15.30;;;;;;;;;;5073444;28;20545;-28
2023/12/05 00:56:43;;;;;;;27.47;15.07;;;;;;;;;;5073380;28;20271;-27
2023/12/05 00:59:09;;;;;;;23.70;13.97;;;;;;;;;;5073477;28;20330;-27
2023/12/05 01:01:34;;;;;;;26.03;14.67;;;;;;;;;;5073897;28;20255;-27
2023/12/05 01:03:59;;;;;;;23.38;13.40;;;;;;;;;;5073193;28;20282;-27
2023/12/05 01:06:24;;;;;;;25.10;14.13;;;;;;;;;;5079283;28;20025;-27
2023/12/05 01:08:49;;;;;;;22.98;13.77;;;;;;;;;;5080108;28;20334;-27
2023/12/05 01:11:18;;;;;;;24.10;14.33;;;;;;;;;;5080471;28;20023;-27
2023/12/05 01:13:46;;;;;;;25.05;15.10;;;;;;;;;;5080975;28;20262;-27
2023/12/05 01:16:11;;;;;;;24.60;13.98;;;;;;;;;;5080365;28;20020;-27
2023/12/05 01:18:37;;;;;;;24.00;13.55;;;;;;;;;;5080417;28;20020;-27
2023/12/05 01:21:02;;;;;;;23.40;13.38;;;;;;;;;;5078569;28;20426;-28
2023/12/05 01:23:27;;;;;;;24.67;14.25;;;;;;;;;;5079706;28;20094;-27
2023/12/05 01:25:52;;;;;;;27.07;14.60;;;;;;;;;;5080375;28;20088;-27
2023/12/05 01:28:17;;;;;;;24.47;14.50;;;;;;;;;;5080345;28;20292;-27
2023/12/05 01:30:43;;;;;;;27.45;15.50;;;;;;;;;;5079667;28;20685;-27
2023/12/05 01:33:08;;;;;;;25.58;13.95;;;;;;;;;;5080038;28;20081;-27
2023/12/05 01:35:33;;;;;;;25.45;14.45;;;;;;;;;;5079664;28;20059;-27
2023/12/05 01:37:58;;;;;;;27.15;14.68;;;;;;;;;;5079706;28;20055;-27
2023/12/05 01:40:23;;;;;;;26.55;14.80;;;;;;;;;;5079889;28;20344;-27
2023/12/05 01:42:49;;;;;;;24.55;13.80;;;;;;;;;;5079537;28;20025;-27
2023/12/05 01:45:14;;;;;;;25.63;14.15;;;;;;;;;;5080130;28;20020;-27
2023/12/05 01:47:40;;;;;;;24.52;14.18;;;;;;;;;;5079856;28;20025;-27
2023/12/05 01:50:09;;;;;;;24.98;13.75;;;;;;;;;;5079555;28;20020;-27
2023/12/05 01:52:35;;;;;;;24.92;14.07;;;;;;;;;;5079767;28;20023;-27
2023/12/05 01:55:00;;;;;;;25.08;14.35;;;;;;;;;;5078273;28;20467;-27
2023/12/05 01:57:25;;;;;;;25.73;13.50;;;;;;;;;;5079752;28;20471;-27
2023/12/05 01:59:51;;;;;;;26.05;14.48;;;;;;;;;;5079470;28;20124;-27
2023/12/05 02:02:16;;;;;;;24.02;14.05;;;;;;;;;;5079367;28;20017;-28
2023/12/05 02:04:42;;;;;;;24.52;13.15;;;;;;;;;;5079384;28;20059;-27
2023/12/05 02:07:07;;;;;;;26.20;14.13;;;;;;;;;;5079922;28;20060;-27
2023/12/05 02:09:37;;;;;;;25.77;13.73;;;;;;;;;;5079683;28;20452;-27
2023/12/05 02:12:02;;;;;;;23.80;13.60;;;;;;;;;;5079529;28;20400;-27
2023/12/05 02:14:27;;;;;;;25.58;13.80;;;;;;;;;;5079275;28;20021;-27
2023/12/05 02:16:57;;;;;;;25.97;13.97;;;;;;;;;;5077037;28;20047;-27
2023/12/05 02:19:22;;;;;;;19.98;10.77;;;;;;;;;;5074854;28;20258;-27
2023/12/05 02:21:49;;;;;;;22.98;12.48;;;;;;;;;;5076347;28;20024;-27
2023/12/05 02:24:27;;;;;;;24.35;14.68;;;;;;;;;;5076032;28;20478;-27
2023/12/05 02:26:57;;;;;;;24.50;13.23;;;;;;;;;;5076458;28;20043;-28
2023/12/05 02:29:22;;;;;;;22.73;13.52;;;;;;;;;;5076504;28;20017;-27
2023/12/05 02:31:47;;;;;;;23.98;13.55;;;;;;;;;;5075907;28;20013;-27
2023/12/05 02:34:13;;;;;;;23.13;13.15;;;;;;;;;;5076163;28;20092;-27
2023/12/05 02:36:49;;;;;;;21.40;12.82;;;;;;;;;;5075789;28;20056;-27
2023/12/05 02:39:26;;;;;;;23.02;13.25;;;;;;;;;;5075777;28;20028;-28
2023/12/05 02:41:55;;;;;;;23.60;13.55;;;;;;;;;;5075930;28;20150;-27
2023/12/05 02:44:23;;;;;;;23.65;13.80;;;;;;;;;;5075615;28;20024;-28
2023/12/05 02:46:49;;;;;;;24.92;13.45;;;;;;;;;;5075908;28;20020;-27
2023/12/05 02:49:14;;;;;;;22.00;12.20;;;;;;;;;;5075601;28;20023;-27
2023/12/05 02:51:40;;;;;;;23.88;12.88;;;;;;;;;;5075520;28;20070;-27
2023/12/05 02:54:06;;;;;;;24.40;12.68;;;;;;;;;;5075599;28;20024;-27
2023/12/05 02:56:32;;;;;;;24.08;14.05;;;;;;;;;;5075768;28;20383;-27
2023/12/05 02:58:57;;;;;;;22.65;13.23;;;;;;;;;;5075939;28;20017;-27
2023/12/05 03:01:22;;;;;;;24.80;13.70;;;;;;;;;;5075196;28;20492;-28
2023/12/05 03:03:47;;;;;;;25.83;14.05;;;;;;;;;;5075494;28;20017;-27
2023/12/05 03:06:13;;;;;;;25.17;13.70;;;;;;;;;;5075263;28;20349;-27
2023/12/05 03:08:38;;;;;;;22.93;13.17;;;;;;;;;;5075173;28;20269;-27
2023/12/05 03:11:03;;;;;;;23.17;13.10;;;;;;;;;;5075081;28;20274;-27
2023/12/05 03:13:28;;;;;;;24.90;13.93;;;;;;;;;;5075058;28;20295;-27
2023/12/05 03:15:53;;;;;;;24.73;13.27;;;;;;;;;;5075627;28;20017;-27
2023/12/05 03:18:18;;;;;;;25.80;14.20;;;;;;;;;;5075043;28;20032;-27
2023/12/05 03:20:44;;;;;;;22.47;13.13;;;;;;;;;;5075414;28;20267;-27
2023/12/05 03:23:09;;;;;;;20.98;11.88;;;;;;;;;;5074674;28;20278;-28
2023/12/05 03:25:34;;;;;;;26.25;14.07;;;;;;;;;;5075029;28;20036;-27
2023/12/05 03:27:59;;;;;;;21.50;13.48;;;;;;;;;;5074150;28;20029;-27
2023/12/05 03:30:24;;;;;;;23.75;13.05;;;;;;;;;;5074327;28;20452;-27
2023/12/05 03:32:50;;;;;;;23.60;12.70;;;;;;;;;;5074772;28;20020;-27
2023/12/05 03:35:15;;;;;;;25.20;13.48;;;;;;;;;;5074903;28;20016;-27
2023/12/05 03:37:40;;;;;;;25.80;13.80;;;;;;;;;;5075192;28;20063;-27
2023/12/05 03:40:06;;;;;;;23.97;13.13;;;;;;;;;;5073297;28;20618;-27
2023/12/05 03:42:31;;;;;;;24.85;12.93;;;;;;;;;;5074673;28;20274;-28
2023/12/05 03:44:56;;;;;;;25.07;13.57;;;;;;;;;;5075021;28;20013;-27
2023/12/05 03:47:21;;;;;;;27.13;12.95;;;;;;;;;;5074375;28;20263;-27
2023/12/05 03:49:47;;;;;;;26.85;13.52;;;;;;;;;;5074619;28;20020;-28
2023/12/05 03:52:12;;;;;;;25.98;13.70;;;;;;;;;;5074297;28;20016;-28
2023/12/05 03:54:38;;;;;;;25.17;13.80;;;;;;;;;;5074840;28;20017;-27
2023/12/05 03:57:03;;;;;;;26.73;13.85;;;;;;;;;;5074514;28;20789;-27
2023/12/05 03:59:28;;;;;;;24.40;13.82;;;;;;;;;;5074225;28;20400;-27
2023/12/05 04:01:53;;;;;;;30.45;14.10;;;;;;;;;;5074423;28;20356;-27
2023/12/05 04:04:18;;;;;;;23.07;13.57;;;;;;;;;;5074659;28;20020;-27
2023/12/05 04:06:44;;;;;;;28.13;14.37;;;;;;;;;;5074094;28;20685;-27
2023/12/05 04:09:09;;;;;;;23.92;13.98;;;;;;;;;;5074277;28;20254;-27
2023/12/05 04:11:34;;;;;;;22.63;13.07;;;;;;;;;;5073876;28;20375;-27
2023/12/05 04:13:59;;;;;;;25.25;13.57;;;;;;;;;;5073999;28;20315;-27
2023/12/05 04:16:25;;;;;;;22.02;12.23;;;;;;;;;;5073884;28;20017;-27
2023/12/05 04:18:51;;;;;;;25.13;13.40;;;;;;;;;;5074061;28;20031;-28
2023/12/05 04:21:17;;;;;;;27.00;13.30;;;;;;;;;;5073834;28;20483;-27
2023/12/05 04:23:42;;;;;;;23.25;12.05;;;;;;;;;;5073992;28;20021;-27
2023/12/05 04:26:07;;;;;;;22.20;12.57;;;;;;;;;;5074037;28;20092;-27
2023/12/05 04:28:33;;;;;;;27.38;14.10;;;;;;;;;;5073994;28;20247;-27
2023/12/05 04:30:58;;;;;;;23.45;13.00;;;;;;;;;;5073726;28;20019;-27
2023/12/05 04:33:23;;;;;;;25.13;12.98;;;;;;;;;;5073883;28;20024;-27
2023/12/05 04:35:48;;;;;;;23.25;11.98;;;;;;;;;;5073618;28;20034;-27
2023/12/05 04:38:15;;;;;;;22.42;12.18;;;;;;;;;;5073589;28;20016;-27
2023/12/05 04:40:40;;;;;;;23.23;12.30;;;;;;;;;;5073194;28;20099;-27
2023/12/05 04:43:05;;;;;;;20.23;11.95;;;;;;;;;;5073402;28;20059;-28
2023/12/05 04:45:30;;;;;;;22.23;12.50;;;;;;;;;;5074042;28;20104;-27
2023/12/05 04:47:55;;;;;;;21.88;12.30;;;;;;;;;;5074558;28;20251;-28
2023/12/05 04:50:21;;;;;;;23.23;11.93;;;;;;;;;;5073422;28;20021;-27
2023/12/05 04:52:46;;;;;;;20.40;11.25;;;;;;;;;;5073127;28;20031;-27
2023/12/05 04:55:11;;;;;;;19.30;11.47;;;;;;;;;;5073870;28;20013;-27
2023/12/05 04:57:36;;;;;;;24.33;11.93;;;;;;;;;;5073885;28;20336;-27
2023/12/05 05:00:03;;;;;;;20.75;11.70;;;;;;;;;;5073270;28;20275;-28
2023/12/05 05:02:28;;;;;;;23.08;11.77;;;;;;;;;;5073550;28;20490;-28
2023/12/05 05:04:53;;;;;;;20.13;11.73;;;;;;;;;;5073885;28;20013;-27
2023/12/05 05:07:18;;;;;;;19.85;11.50;;;;;;;;;;5073239;28;20672;-27
2023/12/05 05:09:43;;;;;;;18.33;11.67;;;;;;;;;;5073234;28;20394;-27
2023/12/05 05:12:09;;;;;;;19.67;11.67;;;;;;;;;;5073730;28;20267;-27
2023/12/05 05:14:36;;;;;;;19.95;11.00;;;;;;;;;;5073424;28;20275;-27
2023/12/05 05:17:01;;;;;;;20.23;11.57;;;;;;;;;;5073436;28;20401;-27
2023/12/05 05:19:26;;;;;;;18.05;11.05;;;;;;;;;;5073185;28;20017;-27
2023/12/05 05:21:51;;;;;;;20.67;12.13;;;;;;;;;;5073593;28;20028;-27
2023/12/05 05:24:16;;;;;;;19.80;11.70;;;;;;;;;;5072853;28;20267;-27
2023/12/05 05:26:42;;;;;;;18.52;10.38;;;;;;;;;;5073035;28;20251;-28
2023/12/05 05:29:07;;;;;;;19.43;11.80;;;;;;;;;;5073664;28;20017;-28
2023/12/05 05:31:32;;;;;;;18.92;10.73;;;;;;;;;;5072976;28;20258;-27
2023/12/05 05:33:57;;;;;;;18.93;10.43;;;;;;;;;;5073005;28;20067;-27
2023/12/05 05:36:22;;;;;;;21.53;11.63;;;;;;;;;;5072996;28;20246;-27
2023/12/05 05:38:47;;;;;;;22.63;11.55;;;;;;;;;;5073517;28;20246;-27
2023/12/05 05:41:13;;;;;;;21.30;12.20;;;;;;;;;;5072916;28;20456;-27
2023/12/05 05:43:38;;;;;;;23.83;12.90;;;;;;;;;;5073409;28;20365;-27
2023/12/05 05:46:03;;;;;;;20.92;11.85;;;;;;;;;;5073160;28;20251;-27
2023/12/05 05:48:29;;;;;;;20.30;11.70;;;;;;;;;;5071808;28;20025;-28
2023/12/05 05:50:54;;;;;;;22.35;12.20;;;;;;;;;;5072767;28;20024;-27
2023/12/05 05:53:19;;;;;;;20.53;12.53;;;;;;;;;;5076483;28;20074;-27
2023/12/05 05:55:44;;;;;;;24.35;13.10;;;;;;;;;;5076801;28;20722;-27
2023/12/05 05:58:10;;;;;;;22.38;12.70;;;;;;;;;;5076727;28;20463;-27
2023/12/05 06:00:35;;;;;;;21.58;12.38;;;;;;;;;;5076316;28;20060;-27
2023/12/05 06:03:00;;;;;;;21.63;12.67;;;;;;;;;;5076886;28;20031;-27
2023/12/05 06:05:25;;;;;;;22.03;12.93;;;;;;;;;;5076441;28;20329;-27
2023/12/05 06:07:52;;;;;;;25.35;13.07;;;;;;;;;;5076903;28;20266;-27
2023/12/05 06:10:17;;;;;;;24.63;12.95;;;;;;;;;;5076527;28;20375;-27
2023/12/05 06:12:42;;;;;;;24.77;12.80;;;;;;;;;;5076224;28;20021;-27
2023/12/05 06:15:08;;;;;;;20.07;12.13;;;;;;;;;;5076238;28;20494;-27
2023/12/05 06:17:33;;;;;;;24.52;13.00;;;;;;;;;;5076652;28;20247;-28
2023/12/05 06:19:58;;;;;;;23.25;12.90;;;;;;;;;;5076412;28;20096;-27
2023/12/05 06:22:24;;;;;;;21.45;12.60;;;;;;;;;;5075983;28;20020;-27
2023/12/05 06:24:49;;;;;;;21.50;12.70;;;;;;;;;;5076082;28;20104;-27
2023/12/05 06:27:14;;;;;;;21.90;12.38;;;;;;;;;;5076025;28;20016;-27
2023/12/05 06:29:39;;;;;;;22.97;13.10;;;;;;;;;;5075930;28;20028;-27
2023/12/05 06:32:04;;;;;;;25.10;13.47;;;;;;;;;;5076515;28;20258;-27
2023/12/05 06:34:30;;;;;;;24.25;13.13;;;;;;;;;;5075859;28;20799;-27
2023/12/05 06:36:55;;;;;;;24.27;13.35;;;;;;;;;;5076407;28;20016;-27
2023/12/05 06:39:20;;;;;;;26.63;13.77;;;;;;;;;;5075737;28;20126;-27
2023/12/05 06:41:46;;;;;;;25.53;12.93;;;;;;;;;;5076286;28;20242;-27
2023/12/05 06:44:11;;;;;;;24.17;13.73;;;;;;;;;;5076421;28;20315;-27
2023/12/05 06:46:36;;;;;;;22.50;13.07;;;;;;;;;;5076059;28;20116;-27
2023/12/05 06:49:03;;;;;;;24.20;13.97;;;;;;;;;;5076140;28;20023;-27
2023/12/05 06:51:28;;;;;;;24.90;14.23;;;;;;;;;;5075505;28;20246;-27
2023/12/05 06:53:53;;;;;;;23.98;13.50;;;;;;;;;;5075709;28;20100;-27
2023/12/05 06:56:22;;;;;;;26.17;13.45;;;;;;;;;;5075410;28;20020;-27
2023/12/05 06:58:47;;;;;;;27.10;13.95;;;;;;;;;;5075274;28;20059;-27
2023/12/05 07:01:12;;;;;;;27.95;14.60;;;;;;;;;;5075098;28;20483;-28
2023/12/05 07:03:37;;;;;;;26.17;14.45;;;;;;;;;;5075266;28;20511;-27
2023/12/05 07:06:04;;;;;;;25.35;14.73;;;;;;;;;;5075517;28;20040;-27
2023/12/05 07:08:29;;;;;;;27.27;14.80;;;;;;;;;;5075325;28;20016;-27
2023/12/05 07:10:55;;;;;;;26.13;15.27;;;;;;;;;;5075710;28;20447;-27
2023/12/05 07:13:20;;;;;;;29.10;15.50;;;;;;;;;;5075586;28;20262;-27
2023/12/05 07:15:45;;;;;;;26.35;15.23;;;;;;;;;;5075018;28;20768;-27
2023/12/05 07:18:10;;;;;;;26.23;15.03;;;;;;;;;;5075069;28;20384;-27
2023/12/05 07:20:36;;;;;;;26.27;14.27;;;;;;;;;;5075103;28;20259;-27
2023/12/05 07:23:01;;;;;;;23.53;14.10;;;;;;;;;;5075324;28;20016;-28
2023/12/05 07:25:26;;;;;;;24.83;13.93;;;;;;;;;;5074493;28;20306;-28
2023/12/05 07:27:51;;;;;;;24.15;13.77;;;;;;;;;;5073693;28;20484;-27
2023/12/05 07:30:17;;;;;;;23.25;13.23;;;;;;;;;;5073061;28;20478;-27
2023/12/05 07:32:42;;;;;;;25.50;14.07;;;;;;;;;;5072696;28;20052;-28
2023/12/05 07:35:07;;;;;;;24.38;13.77;;;;;;;;;;5073023;28;20009;-28
2023/12/05 07:37:32;;;;;;;21.65;13.27;;;;;;;;;;5073179;28;20470;-28
2023/12/05 07:39:57;;;;;;;21.30;13.17;;;;;;;;;;5073683;28;20742;-28
2023/12/05 07:42:23;;;;;;;22.77;13.30;;;;;;;;;;5073574;28;20261;-27
2023/12/05 07:44:48;;;;;;;23.13;13.30;;;;;;;;;;5073868;28;20365;-25
2023/12/05 07:47:14;;;;;;;22.20;13.10;;;;;;;;;;5074632;28;20282;-26
2023/12/05 07:49:42;;;;;;;23.45;13.13;;;;;;;;;;5074408;28;20255;-25
2023/12/05 07:52:07;;;;;;;24.10;13.30;;;;;;;;;;5074350;28;20464;-28
2023/12/05 07:54:32;;;;;;;20.10;12.23;;;;;;;;;;5074494;28;20021;-26
2023/12/05 07:56:57;;;;;;;25.77;14.23;;;;;;;;;;5074268;28;20279;-26
2023/12/05 07:59:23;;;;;;;22.23;12.05;;;;;;;;;;5074220;28;20312;-27
2023/12/05 08:01:48;;;;;;;21.17;12.60;;;;;;;;;;5074620;28;20039;-26
2023/12/05 08:04:13;;;;;;;23.83;13.43;;;;;;;;;;5074437;28;20318;-26
2023/12/05 08:06:38;;;;;;;23.57;13.43;;;;;;;;;;5074338;28;20641;-26
2023/12/05 08:09:03;;;;;;;22.53;12.80;;;;;;;;;;5074600;28;20239;-26
2023/12/05 08:11:28;;;;;;;22.45;12.57;;;;;;;;;;5073927;28;20728;-26
2023/12/05 08:13:54;;;;;;;24.33;13.73;;;;;;;;;;5073795;28;20114;-26
2023/12/05 08:16:19;;;;;;;21.50;13.17;;;;;;;;;;5073447;28;20430;-26
2023/12/05 08:18:45;;;;;;;24.52;13.25;;;;;;;;;;5073891;28;20265;-27
2023/12/05 08:21:10;;;;;;;24.90;13.23;;;;;;;;;;5073828;28;20021;-28
2023/12/05 08:23:35;;;;;;;23.48;12.98;;;;;;;;;;5074290;28;20047;-26
2023/12/05 08:26:01;;;;;;;21.95;13.45;;;;;;;;;;5073801;28;20055;-27
2023/12/05 08:28:26;;;;;;;23.50;12.63;;;;;;;;;;5073725;28;20040;-27
2023/12/05 08:30:51;;;;;;;24.77;13.60;;;;;;;;;;5073671;28;20016;-27
2023/12/05 08:33:17;;;;;;;23.77;13.10;;;;;;;;;;5073924;28;20255;-27
2023/12/05 08:35:43;;;;;;;26.52;13.63;;;;;;;;;;5074173;28;20669;-27
2023/12/05 08:38:08;;;;;;;22.63;13.15;;;;;;;;;;5073860;28;20040;-27
2023/12/05 08:40:33;;;;;;;22.00;12.87;;;;;;;;;;5073698;28;20016;-28
2023/12/05 08:42:58;;;;;;;25.03;13.53;;;;;;;;;;5073925;28;20347;-27
2023/12/05 08:45:24;;;;;;;23.97;13.83;;;;;;;;;;5073812;28;20258;-27
2023/12/05 08:47:53;;;;;;;26.50;13.68;;;;;;;;;;5073775;28;20669;-27
2023/12/05 08:50:18;;;;;;;22.48;12.52;;;;;;;;;;5073801;28;20092;-28
2023/12/05 08:52:44;;;;;;;24.57;13.17;;;;;;;;;;5073911;28;20102;-26
2023/12/05 08:55:10;;;;;;;23.30;13.27;;;;;;;;;;5073526;28;20657;-26
2023/12/05 08:57:36;;;;;;;23.00;12.65;;;;;;;;;;5073811;28;20020;-27
2023/12/05 09:00:04;;;;;;;26.77;14.25;;;;;;;;;;5073358;28;20553;-27
2023/12/05 09:02:29;;;;;;;24.63;13.60;;;;;;;;;;5073196;28;20471;-27
2023/12/05 09:04:56;;;;;;;24.85;13.32;;;;;;;;;;5073198;28;20023;-27
2023/12/05 09:07:21;;;;;;;24.25;13.25;;;;;;;;;;5073575;28;20017;-27
2023/12/05 09:09:46;;;;;;;23.90;13.45;;;;;;;;;;5073314;28;20066;-28
2023/12/05 09:12:12;;;;;;;24.00;13.80;;;;;;;;;;5073258;28;20364;-27
2023/12/05 09:14:37;;;;;;;25.17;13.93;;;;;;;;;;5072036;28;20024;-27
2023/12/05 09:17:03;;;;;;;26.60;14.30;;;;;;;;;;5073355;28;20107;-27
2023/12/05 09:19:28;;;;;;;25.58;13.50;;;;;;;;;;5073101;28;20461;-27
2023/12/05 09:21:53;;;;;;;25.85;14.00;;;;;;;;;;5073108;28;20018;-27
2023/12/05 09:24:18;;;;;;;26.17;15.13;;;;;;;;;;5073262;28;20056;-27
2023/12/05 09:26:43;;;;;;;25.50;14.10;;;;;;;;;;5075032;28;20154;-27
2023/12/05 09:29:09;;;;;;;27.65;14.75;;;;;;;;;;5077510;28;20066;-27
2023/12/05 09:31:34;;;;;;;29.13;15.43;;;;;;;;;;5076953;28;20086;-27
2023/12/05 09:33:59;;;;;;;25.48;14.70;;;;;;;;;;5077181;28;20082;-27
2023/12/05 09:36:24;;;;;;;26.88;14.77;;;;;;;;;;5077120;28;20371;-27
2023/12/05 09:38:50;;;;;;;30.43;15.57;;;;;;;;;;5077023;28;20021;-27
2023/12/05 09:41:15;;;;;;;29.65;14.90;;;;;;;;;;5077078;28;20262;-27
2023/12/05 09:43:41;;;;;;;27.85;15.23;;;;;;;;;;5076697;28;20031;-27
2023/12/05 09:46:10;;;;;;;30.27;15.20;;;;;;;;;;5077075;28;20058;-27
2023/12/05 09:48:45;;;;;;;32.63;15.50;;;;;;;;;;5077100;28;20016;-27
2023/12/05 09:51:12;;;;;;;29.65;15.50;;;;;;;;;;5076708;28;20017;-27
2023/12/05 09:53:37;;;;;;;28.50;15.35;;;;;;;;;;5076686;28;20487;-27
2023/12/05 09:56:03;;;;;;;30.10;15.48;;;;;;;;;;5076635;28;20059;-27
2023/12/05 09:58:28;;;;;;;33.70;17.17;;;;;;;;;;5076439;28;20060;-27
2023/12/05 10:00:55;;;;;;;40.20;17.42;;;;;;;;;;5076455;28;20501;-27
2023/12/05 10:03:21;;;;;;;34.55;16.98;;;;;;;;;;5076399;28;20395;-27
2023/12/05 10:05:47;;;;;;;36.95;15.57;;;;;;;;;;5076444;28;20016;-27
2023/12/05 10:08:13;;;;;;;44.35;18.42;;;;;;;;;;5076277;28;20036;-27
2023/12/05 10:10:39;;;;;;;32.67;16.83;;;;;;;;;;5076524;28;20031;-27
2023/12/05 10:13:04;;;;;;;28.40;15.88;;;;;;;;;;5076271;28;20024;-27
2023/12/05 10:15:29;;;;;;;30.98;15.88;;;;;;;;;;5076524;28;20048;-27
2023/12/05 10:17:55;;;;;;;33.35;16.73;;;;;;;;;;5076262;28;20059;-27
2023/12/05 10:20:20;;;;;;;30.33;16.10;;;;;;;;;;5076194;28;20025;-27
2023/12/05 10:22:45;;;;;;;34.67;16.75;;;;;;;;;;5076311;28;20024;-27
2023/12/05 10:25:11;;;;;;;32.75;16.55;;;;;;;;;;5076094;28;20455;-27
2023/12/05 10:27:36;;;;;;;34.40;16.95;;;;;;;;;;5076343;28;20096;-27
2023/12/05 10:30:02;;;;;;;31.95;16.60;;;;;;;;;;5076532;28;20021;-27
2023/12/05 10:32:27;;;;;;;31.67;16.88;;;;;;;;;;5076134;28;20023;-27
2023/12/05 10:34:54;;;;;;;32.78;16.63;;;;;;;;;;5076089;28;20074;-27
2023/12/05 10:37:26;;;;;;;35.90;17.55;;;;;;;;;;5075413;28;20040;-27
2023/12/05 10:39:52;;;;;;;33.88;16.80;;;;;;;;;;5076114;28;20032;-27
2023/12/05 10:42:19;;;;;;;32.72;17.15;;;;;;;;;;5076033;28;20020;-27
2023/12/05 10:44:44;;;;;;;32.90;16.73;;;;;;;;;;5075997;28;20251;-27
2023/12/05 10:47:10;;;;;;;31.20;15.57;;;;;;;;;;5075622;28;20048;-27
2023/12/05 10:49:36;;;;;;;30.88;16.05;;;;;;;;;;5076144;28;20247;-27
2023/12/05 10:52:03;;;;;;;36.20;17.15;;;;;;;;;;5075788;28;20345;-27
2023/12/05 10:54:28;;;;;;;31.27;16.60;;;;;;;;;;5075808;28;20024;-27
2023/12/05 10:56:57;;;;;;;30.42;16.75;;;;;;;;;;5075696;28;20123;-27
2023/12/05 10:59:27;;;;;;;30.27;17.05;;;;;;;;;;5075127;28;20016;-28
2023/12/05 11:01:54;;;;;;;32.30;16.83;;;;;;;;;;5075685;28;20020;-27
2023/12/05 11:04:20;;;;;;;32.30;17.20;;;;;;;;;;5075624;28;20137;-28
2023/12/05 11:06:45;;;;;;;37.00;17.73;;;;;;;;;;5075839;28;20047;-27
2023/12/05 11:09:10;;;;;;;33.80;17.53;;;;;;;;;;5075312;28;20021;-27
2023/12/05 11:11:40;;;;;;;29.80;16.13;;;;;;;;;;5075180;28;20758;-27
2023/12/05 11:14:07;;;;;;;29.13;16.20;;;;;;;;;;5074546;28;20726;-27
2023/12/05 11:16:35;;;;;;;33.38;16.77;;;;;;;;;;5075518;28;20020;-27
2023/12/05 11:19:18;;;;;;;34.38;17.67;;;;;;;;;;5075084;28;20036;-27
2023/12/05 11:22:03;;;;;;;32.35;16.67;;;;;;;;;;5074899;28;20032;-27
2023/12/05 11:24:28;;;;;;;30.60;16.73;;;;;;;;;;5074837;28;20020;-27
2023/12/05 11:27:02;;;;;;;37.67;17.38;;;;;;;;;;5075449;28;20024;-27
2023/12/05 11:29:38;;;;;;;30.80;16.92;;;;;;;;;;5075200;28;20764;-27
2023/12/05 11:32:10;;;;;;;33.88;16.92;;;;;;;;;;5073565;28;20027;-27
2023/12/05 11:34:53;;;;;;;37.60;18.20;;;;;;;;;;5075013;28;20020;-27
2023/12/05 11:37:18;;;;;;;;;;;;;;;;;;5075110;28;20539;-27
2023/12/05 11:39:44;;;;;;;33.00;16.17;;;;;;;;;;5074887;28;19981;-27
2023/12/05 11:42:10;;;;;;;34.13;17.13;;;;;;;;;;5074506;28;20768;-27
2023/12/05 11:44:39;;;;;;;32.50;16.95;;;;;;;;;;5074689;28;20031;-27
2023/12/05 11:47:12;;;;;;;33.50;17.13;;;;;;;;;;5074823;28;20024;-27
2023/12/05 11:49:41;;;;;;;33.20;17.38;;;;;;;;;;5073406;28;20021;-27
2023/12/05 11:52:07;;;;;;;32.28;17.92;;;;;;;;;;5074383;28;20016;-27
2023/12/05 11:54:33;;;;;;;34.88;16.70;;;;;;;;;;5074580;28;20024;-27
2023/12/05 11:57:11;;;;;;;34.97;18.15;;;;;;;;;;5073970;28;20102;-27
2023/12/05 11:59:40;;;;;;;35.05;17.13;;;;;;;;;;5074054;28;20041;-27
2023/12/05 12:02:06;;;;;;;31.92;16.70;;;;;;;;;;5073289;28;20120;-27
2023/12/05 12:04:31;;;;;;;31.35;16.65;;;;;;;;;;5074098;28;20107;-27
2023/12/05 12:06:57;;;;;;;31.75;16.92;;;;;;;;;;5072904;28;20021;-27
2023/12/05 12:09:22;;;;;;;36.05;17.70;;;;;;;;;;5074107;28;20016;-27
2023/12/05 12:11:48;;;;;;;33.38;17.30;;;;;;;;;;5073930;28;20055;-27
2023/12/05 12:14:17;;;;;;;37.17;17.02;;;;;;;;;;5073935;28;20104;-27
2023/12/05 12:16:42;;;;;;;34.65;17.27;;;;;;;;;;5073860;28;20013;-27
2023/12/05 12:19:15;;;;;;;34.80;17.25;;;;;;;;;;5074202;28;20032;-28
2023/12/05 12:21:41;;;;;;;31.77;16.92;;;;;;;;;;5073974;28;20047;-27
2023/12/05 12:24:06;;;;;;;32.63;16.45;;;;;;;;;;5073745;28;20408;-27
2023/12/05 12:26:32;;;;;;;35.30;16.55;;;;;;;;;;5073984;28;20021;-27
2023/12/05 12:29:04;;;;;;;32.85;15.68;;;;;;;;;;5074014;28;20061;-27
2023/12/05 12:31:30;;;;;;;34.40;15.95;;;;;;;;;;5074034;28;20387;-27
2023/12/05 12:33:56;;;;;;;28.38;15.00;;;;;;;;;;5073032;28;20024;-27
2023/12/05 12:36:22;;;;;;;35.67;16.67;;;;;;;;;;5072570;28;20054;-27
2023/12/05 12:38:48;;;;;;;33.30;15.70;;;;;;;;;;5072818;28;20052;-27
2023/12/05 12:41:13;;;;;;;33.03;16.13;;;;;;;;;;5073254;28;20069;-27
2023/12/05 12:43:38;;;;;;;34.67;17.45;;;;;;;;;;5073429;28;20020;-27
2023/12/05 12:46:04;;;;;;;30.40;16.07;;;;;;;;;;5073625;28;20459;-27
2023/12/05 12:48:29;;;;;;;30.02;16.48;;;;;;;;;;5073790;28;20255;-27
2023/12/05 12:50:54;;;;;;;31.95;15.95;;;;;;;;;;5073830;28;20066;-27
2023/12/05 12:53:20;;;;;;;33.80;17.25;;;;;;;;;;5072214;28;20021;-27
2023/12/05 12:55:45;;;;;;;32.28;16.52;;;;;;;;;;5073989;28;20423;-27
2023/12/05 12:58:10;;;;;;;33.20;17.05;;;;;;;;;;5073385;28;20371;-27
2023/12/05 13:00:36;;;;;;;41.00;17.05;;;;;;;;;;5072867;28;20052;-27
2023/12/05 13:03:02;;;;;;;33.92;16.90;;;;;;;;;;5073459;28;20096;-27
2023/12/05 13:05:31;;;;;;;34.35;17.25;;;;;;;;;;5073464;28;20016;-27
2023/12/05 13:07:57;;;;;;;33.50;16.80;;;;;;;;;;5073529;28;20017;-27
2023/12/05 13:10:22;;;;;;;36.30;17.73;;;;;;;;;;5073440;28;20024;-27
2023/12/05 13:12:48;;;;;;;34.33;17.25;;;;;;;;;;5071884;28;20096;-27
2023/12/05 13:15:15;;;;;;;34.47;16.67;;;;;;;;;;5073308;28;20027;-27
2023/12/05 13:17:54;;;;;;;35.95;16.65;;;;;;;;;;5073680;28;20047;-27
2023/12/05 13:20:19;;;;;;;33.72;17.00;;;;;;;;;;5073762;28;20021;-26
2023/12/05 13:22:45;;;;;;;37.10;17.90;;;;;;;;;;5073065;28;20023;-27
2023/12/05 13:25:10;;;;;;;36.38;17.58;;;;;;;;;;5073400;28;20254;-27
2023/12/05 13:27:36;;;;;;;37.63;17.02;;;;;;;;;;5072140;28;20456;-27
2023/12/05 13:30:01;;;;;;;37.28;17.45;;;;;;;;;;5072716;28;20071;-27
2023/12/05 13:32:26;;;;;;;37.17;16.52;;;;;;;;;;5072812;28;20100;-27
2023/12/05 13:34:51;;;;;;;35.30;15.73;;;;;;;;;;5073368;28;20029;-27
2023/12/05 13:37:16;;;;;;;37.50;17.33;;;;;;;;;;5073594;28;20262;-27
2023/12/05 13:39:41;;;;;;;38.07;17.13;;;;;;;;;;5073056;28;20677;-27
2023/12/05 13:42:07;;;;;;;37.50;17.20;;;;;;;;;;5071527;28;20258;-27
2023/12/05 13:44:32;;;;;;;36.20;16.97;;;;;;;;;;5072119;28;20345;-27
2023/12/05 13:46:57;;;;;;;36.13;16.92;;;;;;;;;;5072485;28;20345;-27
2023/12/05 13:49:22;;;;;;;38.13;17.37;;;;;;;;;;5072490;28;20070;-28
2023/12/05 13:51:48;;;;;;;36.13;17.38;;;;;;;;;;5072619;28;20267;-27
2023/12/05 13:54:13;;;;;;;41.05;18.33;;;;;;;;;;5072544;28;20016;-25
2023/12/05 13:56:38;;;;;;;34.87;16.73;;;;;;;;;;5071466;28;20021;-27
2023/12/05 13:59:04;;;;;;;40.22;17.75;;;;;;;;;;5072924;28;20251;-27
2023/12/05 14:01:29;;;;;;;35.72;17.48;;;;;;;;;;5072678;28;20463;-27
2023/12/05 14:03:54;;;;;;;36.90;17.02;;;;;;;;;;5073370;28;20069;-27
2023/12/05 14:06:20;;;;;;;36.72;17.95;;;;;;;;;;5072885;28;20478;-27
2023/12/05 14:08:46;;;;;;;35.67;17.00;;;;;;;;;;5071570;28;20021;-28
2023/12/05 14:11:12;;;;;;;38.40;17.25;;;;;;;;;;5072981;28;20067;-26